Terminal Aerodrome Forecast
Issued by NWS

Home | Current Version | Previous Version | Text Only | Print | Product List | Glossary On
Versions: 1 2 3 4 5 6 7 8 9 10 11 12 13 14 15 16 17 18 19 20 21 22 23 24
043
FTUS41 KILN 212338
TAFLUK
TAF
KLUK 212338Z 2200/2224 VRB02KT P6SM BKN110
     FM220700 VRB02KT 3SM BR SCT080 OVC140
     FM221300 06003KT P6SM OVC060
     FM221700 06006KT 6SM -SHRA BR OVC050
     FM221900 06010KT 5SM -SHRA BR OVC022
     FM222300 03011KT 5SM BR VCSH OVC012=

USA.gov is the U.S. government's official web portal to all federal, state and local government web resources and services.